Terminal Aerodrome Forecast
Issued by NWS

Home | Current Version | Previous Version | Text Only | Print | Product List | Glossary On
Versions: 1 2 3 4 5 6 7 8 9 10 11 12 13 14 15 16 17 18 19 20 21 22 23 24 25 26 27 28 29 30 31 32 33 34
000
FTPA31 PHFO 301200 AAA
TAFITO
TAF AMD
PHTO 301201Z 3012/3112 23006KT P6SM VCSH SCT022 BKN040
      TEMPO 3012/3016 4SM -SHRA BR BKN020
     FM302000 10008KT P6SM VCSH SCT030 BKN050
     FM310400 VRB03KT P6SM VCSH SCT030 BKN040
     FM310800 23006KT P6SM VCSH SCT022 BKN040=

USA.gov is the U.S. government's official web portal to all federal, state and local government web resources and services.